Time;durP1;ratioP1;P1;durP2;ratioP2;P2;SDS_P1;SDS_P2;PMS_P1;PMS_P2;Temp;Humidity;BMP_temperature;BMP_pressure;BME280_temperature;BME280_humidity;BME280_pressure;Samples;Min_cycle;Max_cycle;Signal;HPM_P1;HPM_P2
2022/05/02 00:00:50;;;;;;;6.20;5.60;;;;;;;;;;5098531;28;20077;-88
2022/05/02 00:03:17;;;;;;;9.60;5.78;;;;;;;;;;5116458;28;20031;-85
2022/05/02 00:05:43;;;;;;;6.25;5.32;;;;;;;;;;5097666;28;20028;-87
2022/05/02 00:08:09;;;;;;;6.25;5.65;;;;;;;;;;5116292;28;20094;-88
2022/05/02 00:10:34;;;;;;;7.38;6.22;;;;;;;;;;5097935;28;20050;-86
2022/05/02 00:13:02;;;;;;;7.05;6.35;;;;;;;;;;5116378;28;20064;-89
2022/05/02 00:15:28;;;;;;;7.45;6.60;;;;;;;;;;5092756;28;20027;-86
2022/05/02 00:17:57;;;;;;;8.15;6.75;;;;;;;;;;5097857;28;20042;-88
2022/05/02 00:20:30;;;;;;;5.95;5.45;;;;;;;;;;5116104;28;20024;-86
2022/05/02 00:22:58;;;;;;;6.40;5.63;;;;;;;;;;5115786;28;20027;-89
2022/05/02 00:25:24;;;;;;;7.63;6.82;;;;;;;;;;5094984;28;20023;-86
2022/05/02 00:27:50;;;;;;;7.88;6.10;;;;;;;;;;5115953;28;20031;-89
2022/05/02 00:30:17;;;;;;;6.78;5.93;;;;;;;;;;5114294;28;20036;-85
2022/05/02 00:32:43;;;;;;;6.70;6.00;;;;;;;;;;5115812;28;20024;-87
2022/05/02 00:35:09;;;;;;;6.55;5.85;;;;;;;;;;5114787;28;20027;-91
2022/05/02 00:37:37;;;;;;;6.47;5.88;;;;;;;;;;5115532;28;20027;-88
2022/05/02 00:40:03;;;;;;;7.35;5.85;;;;;;;;;;5096841;28;20523;-87
2022/05/02 00:42:29;;;;;;;8.52;5.60;;;;;;;;;;5115682;28;20451;-85
2022/05/02 00:44:54;;;;;;;5.65;5.05;;;;;;;;;;5115630;28;20176;-87
2022/05/02 00:47:20;;;;;;;6.45;5.53;;;;;;;;;;5112930;28;20028;-88
2022/05/02 00:49:50;;;;;;;7.95;5.40;;;;;;;;;;5114035;28;20026;-87
2022/05/02 00:52:16;;;;;;;7.40;6.70;;;;;;;;;;5115746;28;20034;-89
2022/05/02 00:54:43;;;;;;;6.38;5.78;;;;;;;;;;5097099;28;20038;-87
2022/05/02 00:57:12;;;;;;;6.13;5.53;;;;;;;;;;5115423;28;20066;-88
2022/05/02 00:59:38;;;;;;;6.75;5.70;;;;;;;;;;5093648;28;20079;-85
2022/05/02 01:02:06;;;;;;;6.18;5.30;;;;;;;;;;5094485;28;20035;-84
2022/05/02 01:04:31;;;;;;;7.45;5.88;;;;;;;;;;5097136;28;20360;-86
2022/05/02 01:07:18;;;;;;;6.45;5.85;;;;;;;;;;5116095;28;20030;-84
2022/05/02 01:09:46;;;;;;;5.80;5.25;;;;;;;;;;5114275;28;20019;-88
2022/05/02 01:12:16;;;;;;;7.50;5.57;;;;;;;;;;5097222;28;20088;-88
2022/05/02 01:14:44;;;;;;;6.50;5.68;;;;;;;;;;5096904;28;20494;-87
2022/05/02 01:17:10;;;;;;;6.65;5.18;;;;;;;;;;5115976;28;20042;-91
2022/05/02 01:19:36;;;;;;;5.75;5.00;;;;;;;;;;5115038;28;20023;-89
2022/05/02 01:22:04;;;;;;;6.00;5.40;;;;;;;;;;5091958;28;20150;-87
2022/05/02 01:24:36;;;;;;;6.72;5.65;;;;;;;;;;5114447;28;20030;-88
2022/05/02 01:27:03;;;;;;;7.10;4.70;;;;;;;;;;5113996;28;20031;-92
2022/05/02 01:29:31;;;;;;;6.13;5.53;;;;;;;;;;5106619;28;20028;-88
2022/05/02 01:32:09;;;;;;;6.80;5.65;;;;;;;;;;5097015;28;20019;-87
2022/05/02 01:34:35;;;;;;;9.55;6.03;;;;;;;;;;5095845;28;20165;-85
2022/05/02 01:37:01;;;;;;;6.35;5.38;;;;;;;;;;5115293;28;20028;-88
2022/05/02 01:39:28;;;;;;;5.80;5.30;;;;;;;;;;5094538;28;20047;-88
2022/05/02 01:41:55;;;;;;;6.22;5.63;;;;;;;;;;5097194;28;20077;-90
2022/05/02 01:44:20;;;;;;;7.15;5.47;;;;;;;;;;5114472;28;20020;-87
2022/05/02 01:46:46;;;;;;;5.80;5.20;;;;;;;;;;5097268;28;20030;-90
2022/05/02 01:49:12;;;;;;;6.68;5.68;;;;;;;;;;5114665;28;20049;-87
2022/05/02 01:51:37;;;;;;;6.93;6.22;;;;;;;;;;5114317;28;20038;-88
2022/05/02 01:54:03;;;;;;;6.80;6.05;;;;;;;;;;5096118;28;20027;-88
2022/05/02 01:56:28;;;;;;;6.40;5.80;;;;;;;;;;5114185;28;20109;-90
2022/05/02 01:58:55;;;;;;;6.80;5.88;;;;;;;;;;5113592;28;20067;-88
2022/05/02 02:01:20;;;;;;;6.97;6.28;;;;;;;;;;5114428;28;20118;-87
2022/05/02 02:03:46;;;;;;;6.85;6.15;;;;;;;;;;5095486;28;20121;-88
2022/05/02 02:06:12;;;;;;;9.95;6.00;;;;;;;;;;5095169;28;20023;-89
2022/05/02 02:08:37;;;;;;;10.75;5.78;;;;;;;;;;5095290;28;20030;-88
2022/05/02 02:11:05;;;;;;;6.70;5.63;;;;;;;;;;5095278;28;20027;-89
2022/05/02 02:13:31;;;;;;;6.80;5.97;;;;;;;;;;5087904;28;20038;-87
2022/05/02 02:16:17;;;;;;;7.43;6.43;;;;;;;;;;5096201;28;20031;-89
2022/05/02 02:18:43;;;;;;;7.75;6.60;;;;;;;;;;5113795;28;20019;-89
2022/05/02 02:21:10;;;;;;;8.40;6.85;;;;;;;;;;5113414;28;20498;-89
2022/05/02 02:23:36;;;;;;;8.77;6.68;;;;;;;;;;5113339;28;20032;-88
2022/05/02 02:26:04;;;;;;;7.30;6.53;;;;;;;;;;5095324;28;20385;-91
2022/05/02 02:28:30;;;;;;;7.43;6.55;;;;;;;;;;5095526;28;20451;-87
2022/05/02 02:30:55;;;;;;;6.85;6.22;;;;;;;;;;5113485;28;20028;-87
2022/05/02 02:33:21;;;;;;;7.30;6.60;;;;;;;;;;5113399;28;20386;-88
2022/05/02 02:35:46;;;;;;;9.32;7.10;;;;;;;;;;5111890;28;20084;-90
2022/05/02 02:38:12;;;;;;;8.70;7.38;;;;;;;;;;5113356;28;20023;-88
2022/05/02 02:40:40;;;;;;;7.30;6.57;;;;;;;;;;5094594;28;20483;-87
2022/05/02 02:43:06;;;;;;;7.60;6.80;;;;;;;;;;5094990;28;20096;-88
2022/05/02 02:45:32;;;;;;;8.68;7.38;;;;;;;;;;5113190;28;20031;-90
2022/05/02 02:47:57;;;;;;;9.25;7.45;;;;;;;;;;5112672;28;20373;-86
2022/05/02 02:50:23;;;;;;;8.27;7.47;;;;;;;;;;5113172;28;20122;-88
2022/05/02 02:52:48;;;;;;;8.50;7.03;;;;;;;;;;5113020;28;20023;-88
2022/05/02 02:55:14;;;;;;;7.68;6.72;;;;;;;;;;5113122;28;20020;-86
2022/05/02 02:57:39;;;;;;;8.82;7.50;;;;;;;;;;5094505;28;20024;-88
2022/05/02 03:00:13;;;;;;;7.80;7.00;;;;;;;;;;5113091;28;20102;-87
2022/05/02 03:02:40;;;;;;;8.68;7.63;;;;;;;;;;5112542;28;20030;-88
2022/05/02 03:07:51;;;;;;;8.57;7.35;;;;;;;;;;5112595;28;20035;-89
2022/05/02 03:10:17;;;;;;;8.43;7.50;;;;;;;;;;5093921;28;20024;-89
2022/05/02 03:12:43;;;;;;;8.25;6.85;;;;;;;;;;5094587;28;20015;-89
2022/05/02 03:15:09;;;;;;;7.60;6.78;;;;;;;;;;5094187;28;20486;-89
2022/05/02 03:17:34;;;;;;;8.13;6.40;;;;;;;;;;5112799;28;20016;-87
2022/05/02 03:19:59;;;;;;;8.35;7.43;;;;;;;;;;5112693;28;20019;-89
2022/05/02 03:22:25;;;;;;;8.32;6.50;;;;;;;;;;5113006;28;20026;-90
2022/05/02 03:24:50;;;;;;;8.45;6.38;;;;;;;;;;5094629;28;20016;-89
2022/05/02 03:27:16;;;;;;;8.95;6.95;;;;;;;;;;5112633;28;20019;-89
2022/05/02 03:30:01;;;;;;;8.82;7.88;;;;;;;;;;5113213;28;20028;-89
2022/05/02 03:32:26;;;;;;;11.02;8.50;;;;;;;;;;5112918;28;20027;-90
2022/05/02 03:34:52;;;;;;;8.23;6.97;;;;;;;;;;5112710;28;20020;-90
2022/05/02 03:37:17;;;;;;;11.15;8.32;;;;;;;;;;5111626;28;20030;-91
2022/05/02 03:39:43;;;;;;;6.75;6.05;;;;;;;;;;5094339;28;20053;-90
2022/05/02 03:42:08;;;;;;;6.57;5.60;;;;;;;;;;5095119;28;20070;-88
2022/05/02 03:44:34;;;;;;;5.40;4.85;;;;;;;;;;5094393;28;20023;-90
2022/05/02 03:46:59;;;;;;;7.10;5.50;;;;;;;;;;5094633;28;20026;-89
2022/05/02 03:49:25;;;;;;;9.82;5.57;;;;;;;;;;5112683;28;20441;-88
2022/05/02 03:51:50;;;;;;;5.68;4.78;;;;;;;;;;5094869;28;20019;-87
2022/05/02 03:54:16;;;;;;;6.90;4.45;;;;;;;;;;5094633;28;20031;-88
2022/05/02 03:56:41;;;;;;;4.70;4.10;;;;;;;;;;5094813;28;20019;-88
2022/05/02 03:59:07;;;;;;;5.93;4.60;;;;;;;;;;5112793;28;20034;-87
2022/05/02 04:01:36;;;;;;;7.63;3.95;;;;;;;;;;5094393;28;20072;-87
2022/05/02 04:04:02;;;;;;;5.33;4.07;;;;;;;;;;5091364;28;20029;-88
2022/05/02 04:06:28;;;;;;;4.88;3.85;;;;;;;;;;5094838;28;20057;-87
2022/05/02 04:08:53;;;;;;;4.15;3.67;;;;;;;;;;5094523;28;20027;-90
2022/05/02 04:11:23;;;;;;;4.57;3.90;;;;;;;;;;5094132;28;20065;-87
2022/05/02 04:13:49;;;;;;;6.97;4.43;;;;;;;;;;5094131;28;20015;-86
2022/05/02 04:16:15;;;;;;;4.30;3.47;;;;;;;;;;5112947;28;20487;-87
2022/05/02 04:18:41;;;;;;;4.68;4.20;;;;;;;;;;5094042;28;20034;-90
2022/05/02 04:21:06;;;;;;;5.30;4.10;;;;;;;;;;5109885;28;20571;-85
2022/05/02 04:23:32;;;;;;;5.60;3.60;;;;;;;;;;5116264;28;20035;-84
2022/05/02 04:25:57;;;;;;;5.60;4.10;;;;;;;;;;5115766;28;20008;-87
2022/05/02 04:28:23;;;;;;;7.05;4.18;;;;;;;;;;5116105;28;20035;-87
2022/05/02 04:30:48;;;;;;;4.90;3.33;;;;;;;;;;5097354;28;20024;-87
2022/05/02 04:33:14;;;;;;;4.85;4.05;;;;;;;;;;5115991;28;20031;-87
2022/05/02 04:35:40;;;;;;;5.93;3.75;;;;;;;;;;5114922;28;20016;-89
2022/05/02 04:38:05;;;;;;;5.68;3.65;;;;;;;;;;5115579;28;20031;-88
2022/05/02 04:40:31;;;;;;;5.40;3.70;;;;;;;;;;5115660;28;20039;-87
2022/05/02 04:42:56;;;;;;;4.60;3.65;;;;;;;;;;5115448;28;20118;-89
2022/05/02 04:45:22;;;;;;;6.55;4.28;;;;;;;;;;5097016;28;20024;-88
2022/05/02 04:47:47;;;;;;;5.68;3.95;;;;;;;;;;5097043;28;20027;-87
2022/05/02 04:50:12;;;;;;;6.50;3.70;;;;;;;;;;5115302;28;20417;-89
2022/05/02 04:52:38;;;;;;;4.25;3.20;;;;;;;;;;5115666;28;20530;-86
2022/05/02 04:55:04;;;;;;;4.47;3.47;;;;;;;;;;5115480;28;20029;-87
2022/05/02 04:57:30;;;;;;;4.28;3.75;;;;;;;;;;5096929;28;20035;-89
2022/05/02 04:59:55;;;;;;;10.98;4.15;;;;;;;;;;5115258;28;20039;-90
2022/05/02 05:02:21;;;;;;;4.53;3.40;;;;;;;;;;5114925;28;20106;-89
2022/05/02 05:04:46;;;;;;;4.47;3.97;;;;;;;;;;5096929;28;20076;-90
2022/05/02 05:07:12;;;;;;;4.85;3.28;;;;;;;;;;5115332;28;20030;-88
2022/05/02 05:09:37;;;;;;;4.35;3.67;;;;;;;;;;5097234;28;20023;-87
2022/05/02 05:12:21;;;;;;;4.78;3.75;;;;;;;;;;5113674;28;20088;-90
2022/05/02 05:18:00;;;;;;;5.00;3.90;;;;;;;;;;5115006;28;20039;-90
2022/05/02 05:20:35;;;;;;;4.57;3.95;;;;;;;;;;5094999;28;20027;-88
2022/05/02 05:23:19;;;;;;;5.70;4.32;;;;;;;;;;5113409;28;20034;-89
2022/05/02 05:26:08;;;;;;;6.80;4.90;;;;;;;;;;5115068;28;20016;-91
2022/05/02 05:28:51;;;;;;;4.68;4.18;;;;;;;;;;5097639;28;20028;-89
2022/05/02 05:31:40;;;;;;;4.90;4.07;;;;;;;;;;5092551;28;20019;-90
2022/05/02 05:34:07;;;;;;;5.15;4.05;;;;;;;;;;5112993;28;20494;-87
2022/05/02 05:36:48;;;;;;;5.18;4.05;;;;;;;;;;5114164;28;20031;-87
2022/05/02 05:39:39;;;;;;;4.10;3.50;;;;;;;;;;5096617;28;20048;-88
2022/05/02 05:42:04;;;;;;;10.23;5.07;;;;;;;;;;5111967;28;20072;-90
2022/05/02 05:45:10;;;;;;;4.75;3.90;;;;;;;;;;5095827;28;20020;-90
2022/05/02 05:47:55;;;;;;;5.45;4.65;;;;;;;;;;5112196;28;20046;-87
2022/05/02 05:50:31;;;;;;;5.95;3.90;;;;;;;;;;5096012;28;20057;-90
2022/05/02 05:53:28;;;;;;;6.70;3.90;;;;;;;;;;5114545;28;20020;-90
2022/05/02 05:55:59;;;;;;;6.03;4.60;;;;;;;;;;5081587;28;20488;-87
2022/05/02 05:58:46;;;;;;;5.50;4.32;;;;;;;;;;5095033;28;20047;-91
2022/05/02 06:01:26;;;;;;;6.70;5.60;;;;;;;;;;5092268;28;20413;-88
2022/05/02 06:04:04;;;;;;;;;;;;;;;;;;5095900;28;20057;-89
2022/05/02 06:06:30;;;;;;;10.10;7.20;;;;;;;;;;5112536;28;19922;-89
2022/05/02 06:09:00;;;;;;;10.43;7.32;;;;;;;;;;5113275;28;20032;-88
2022/05/02 06:11:29;;;;;;;10.30;7.28;;;;;;;;;;5113451;28;20447;-88
2022/05/02 06:14:01;;;;;;;8.50;6.63;;;;;;;;;;5094107;28;20498;-88
2022/05/02 06:19:31;;;;;;;7.82;6.47;;;;;;;;;;5030728;28;20602;-86
2022/05/02 06:22:01;;;;;;;8.50;6.93;;;;;;;;;;5095744;28;20417;-86
2022/05/02 06:24:31;;;;;;;9.57;6.68;;;;;;;;;;5112574;28;20022;-87
2022/05/02 06:26:58;;;;;;;7.60;6.80;;;;;;;;;;5113231;28;20031;-85
2022/05/02 06:29:25;;;;;;;9.55;6.85;;;;;;;;;;5094527;28;20096;-87
2022/05/02 06:31:54;;;;;;;7.80;6.93;;;;;;;;;;5094829;28;20049;-87
2022/05/02 06:34:26;;;;;;;8.50;7.45;;;;;;;;;;5110275;28;20027;-88
2022/05/02 06:36:56;;;;;;;8.02;7.05;;;;;;;;;;5094636;28;20031;-87
2022/05/02 06:39:31;;;;;;;8.48;7.50;;;;;;;;;;5110031;28;20043;-86
2022/05/02 06:42:16;;;;;;;9.23;7.32;;;;;;;;;;5094499;28;20126;-87
2022/05/02 06:44:57;;;;;;;10.90;7.13;;;;;;;;;;5093756;28;20021;-90
2022/05/02 06:47:48;;;;;;;10.07;8.10;;;;;;;;;;5095025;28;20055;-89
2022/05/02 06:50:17;;;;;;;10.18;8.10;;;;;;;;;;5093756;28;20038;-89
2022/05/02 06:52:59;;;;;;;11.15;8.02;;;;;;;;;;5093946;28;20114;-86
2022/05/02 06:55:33;;;;;;;8.52;7.65;;;;;;;;;;5112344;28;20035;-85
2022/05/02 06:58:11;;;;;;;11.13;8.75;;;;;;;;;;5109973;28;20062;-88
2022/05/02 07:00:56;;;;;;;12.80;9.32;;;;;;;;;;5109579;28;20435;-85
2022/05/02 07:03:43;;;;;;;13.30;8.25;;;;;;;;;;5109402;28;20034;-86
2022/05/02 07:06:27;;;;;;;11.52;7.45;;;;;;;;;;5110968;28;20327;-87
2022/05/02 07:09:00;;;;;;;12.27;9.07;;;;;;;;;;5111851;28;20024;-85
2022/05/02 07:11:50;;;;;;;18.27;11.77;;;;;;;;;;5109780;28;20027;-85
2022/05/02 07:14:59;;;;;;;10.52;8.43;;;;;;;;;;5111105;28;20034;-87
2022/05/02 07:17:45;;;;;;;12.40;9.27;;;;;;;;;;5080413;28;20495;-86
2022/05/02 07:20:25;;;;;;;8.13;7.35;;;;;;;;;;5112803;28;20096;-86
2022/05/02 07:22:53;;;;;;;;;;;;;;;;;;5091224;28;20092;-88
2022/05/02 07:25:22;;;;;;;11.02;8.98;;;;;;;;;;5112081;28;20008;-85
2022/05/02 07:28:36;;;;;;;11.05;7.70;;;;;;;;;;5110963;28;20020;-87
2022/05/02 07:31:01;;;;;;;19.67;13.25;;;;;;;;;;5092648;28;20352;-87
2022/05/02 07:33:36;;;;;;;10.80;8.40;;;;;;;;;;5111623;28;20047;-86
2022/05/02 07:36:02;;;;;;;12.02;9.95;;;;;;;;;;5111984;28;20532;-87
2022/05/02 07:38:36;;;;;;;10.75;7.93;;;;;;;;;;5093438;28;20028;-86
2022/05/02 07:41:23;;;;;;;7.35;6.65;;;;;;;;;;5111911;28;20023;-86
2022/05/02 07:43:50;;;;;;;19.20;15.43;;;;;;;;;;5111197;28;20063;-87
2022/05/02 07:46:21;;;;;;;9.10;7.95;;;;;;;;;;5092088;28;20033;-85
2022/05/02 07:48:51;;;;;;;7.03;5.53;;;;;;;;;;5108892;28;20522;-85
2022/05/02 07:51:19;;;;;;;11.88;5.72;;;;;;;;;;5093048;28;20088;-89
2022/05/02 07:53:45;;;;;;;7.90;4.88;;;;;;;;;;5092486;28;20058;-86
2022/05/02 07:56:12;;;;;;;6.47;5.10;;;;;;;;;;5113726;28;20027;-92
2022/05/02 07:58:40;;;;;;;7.10;5.43;;;;;;;;;;5115944;28;20031;-85
2022/05/02 08:01:06;;;;;;;9.15;6.03;;;;;;;;;;5097352;28;20100;-87
2022/05/02 08:03:32;;;;;;;5.88;5.30;;;;;;;;;;5114381;28;20463;-87
2022/05/02 08:06:36;;;;;;;7.57;5.13;;;;;;;;;;5094607;28;20027;-87
2022/05/02 08:09:32;;;;;;;7.20;6.50;;;;;;;;;;5093900;28;20102;-86
2022/05/02 08:12:18;;;;;;;34.15;27.80;;;;;;;;;;5111968;28;20466;-86
2022/05/02 08:15:07;;;;;;;13.48;11.57;;;;;;;;;;5096677;28;20053;-86
2022/05/02 08:17:47;;;;;;;6.45;5.85;;;;;;;;;;5113252;28;20028;-85
2022/05/02 08:20:26;;;;;;;6.80;6.10;;;;;;;;;;5113247;28;20051;-86
2022/05/02 08:29:18;;;;;;;5.95;5.35;;;;;;;;;;5111296;28;20152;-84
2022/05/02 08:32:28;;;;;;;8.32;6.22;;;;;;;;;;5111584;28;20024;-88
2022/05/02 08:35:18;;;;;;;6.70;5.50;;;;;;;;;;5076715;28;20027;-85
2022/05/02 08:38:05;;;;;;;6.10;5.50;;;;;;;;;;5096495;28;20032;-84
2022/05/02 08:41:02;;;;;;;6.18;5.57;;;;;;;;;;5099276;28;20069;-86
2022/05/02 08:43:37;;;;;;;9.82;7.82;;;;;;;;;;5094110;28;20613;-86
2022/05/02 08:46:20;;;;;;;22.00;15.38;;;;;;;;;;5110092;28;20382;-85
2022/05/02 08:52:08;;;;;;;5.35;4.82;;;;;;;;;;5111932;28;20054;-86
2022/05/02 08:55:11;;;;;;;5.78;5.20;;;;;;;;;;5112061;28;20031;-88
2022/05/02 08:57:58;;;;;;;9.55;5.70;;;;;;;;;;5112565;28;20548;-88
2022/05/02 09:00:38;;;;;;;6.95;5.38;;;;;;;;;;5093579;28;20828;-87
2022/05/02 09:03:27;;;;;;;6.72;5.63;;;;;;;;;;5112475;28;20112;-88
2022/05/02 09:05:58;;;;;;;7.78;5.05;;;;;;;;;;5112263;28;20020;-87
2022/05/02 09:09:02;;;;;;;5.20;4.63;;;;;;;;;;5091514;28;20391;-87
2022/05/02 09:11:44;;;;;;;8.27;4.90;;;;;;;;;;5113361;28;20370;-85
2022/05/02 09:14:48;;;;;;;5.50;4.50;;;;;;;;;;5109665;28;20038;-85
2022/05/02 09:17:46;;;;;;;4.68;4.28;;;;;;;;;;5112129;28;20076;-85
2022/05/02 09:20:38;;;;;;;4.75;4.25;;;;;;;;;;5112152;28;20070;-85
2022/05/02 09:23:46;;;;;;;5.68;4.85;;;;;;;;;;5113040;28;20485;-86
2022/05/02 09:26:39;;;;;;;5.10;4.47;;;;;;;;;;5111843;28;20131;-85
2022/05/02 09:29:13;;;;;;;11.95;10.52;;;;;;;;;;5112408;28;20022;-87
2022/05/02 09:31:58;;;;;;;39.28;29.60;;;;;;;;;;5094302;28;20344;-88
2022/05/02 09:34:42;;;;;;;7.20;5.18;;;;;;;;;;5094617;28;20382;-85
2022/05/02 09:37:20;;;;;;;6.03;4.78;;;;;;;;;;5095329;28;20024;-87
2022/05/02 09:39:47;;;;;;;4.80;4.35;;;;;;;;;;5090476;28;20150;-86
2022/05/02 09:42:37;;;;;;;4.80;4.25;;;;;;;;;;5090905;28;20082;-88
2022/05/02 09:51:28;;;;;;;3.97;3.55;;;;;;;;;;5091066;28;20042;-86
2022/05/02 09:54:06;;;;;;;4.88;3.40;;;;;;;;;;5081510;28;20099;-84
2022/05/02 09:56:41;;;;;;;4.40;3.67;;;;;;;;;;5091197;28;20036;-85
2022/05/02 09:59:26;;;;;;;14.02;10.15;;;;;;;;;;5089903;28;20027;-86
2022/05/02 10:02:05;;;;;;;10.18;9.27;;;;;;;;;;5091327;28;20024;-87
2022/05/02 10:05:06;;;;;;;4.03;3.33;;;;;;;;;;5081520;28;20047;-87
2022/05/02 10:07:36;;;;;;;3.22;2.92;;;;;;;;;;5083516;28;20659;-85
2022/05/02 10:10:05;;;;;;;3.33;3.00;;;;;;;;;;5089568;28;20016;-86
2022/05/02 10:12:55;;;;;;;3.88;3.50;;;;;;;;;;5091463;28;20024;-86
2022/05/02 10:15:45;;;;;;;4.53;3.30;;;;;;;;;;5102910;28;20021;-90
2022/05/02 10:18:44;;;;;;;4.13;3.53;;;;;;;;;;5090538;28;20468;-87
2022/05/02 10:21:23;;;;;;;5.93;3.20;;;;;;;;;;5090635;28;20020;-87
2022/05/02 10:24:17;;;;;;;4.40;3.63;;;;;;;;;;5086078;28;20020;-85
2022/05/02 10:26:49;;;;;;;7.90;4.68;;;;;;;;;;5085960;28;20032;-85
2022/05/02 10:29:38;;;;;;;4.95;4.20;;;;;;;;;;5073035;28;20066;-88
2022/05/02 10:32:26;;;;;;;4.68;4.10;;;;;;;;;;5090897;28;20031;-86
2022/05/02 10:34:54;;;;;;;5.18;4.40;;;;;;;;;;5085905;28;20403;-89
2022/05/02 10:37:28;;;;;;;4.70;4.30;;;;;;;;;;5089824;28;20487;-84
2022/05/02 10:40:04;;;;;;;6.13;3.83;;;;;;;;;;5087426;28;20412;-85
2022/05/02 10:42:31;;;;;;;7.15;5.15;;;;;;;;;;5073823;28;20681;-90
2022/05/02 10:45:06;;;;;;;52.50;39.60;;;;;;;;;;5091997;28;20074;-86
2022/05/02 10:47:59;;;;;;;15.73;10.30;;;;;;;;;;5085904;28;20032;-84
2022/05/02 10:50:31;;;;;;;6.57;5.30;;;;;;;;;;5091908;28;20019;-84
2022/05/02 10:53:25;;;;;;;5.13;4.63;;;;;;;;;;5090142;28;20515;-86
2022/05/02 10:56:09;;;;;;;12.43;7.50;;;;;;;;;;5090686;28;20048;-84
2022/05/02 10:58:34;;;;;;;133.55;73.07;;;;;;;;;;5079254;28;20024;-84
2022/05/02 11:01:06;;;;;;;123.20;72.65;;;;;;;;;;5087170;28;20031;-83
2022/05/02 11:03:46;;;;;;;466.45;270.65;;;;;;;;;;5079662;28;20539;-84
2022/05/02 11:06:31;;;;;;;340.60;211.77;;;;;;;;;;5089379;28;20104;-84
2022/05/02 11:09:03;;;;;;;289.30;143.85;;;;;;;;;;5090939;28;20412;-86
2022/05/02 11:11:46;;;;;;;31.48;22.13;;;;;;;;;;5091420;28;20035;-84
2022/05/02 11:14:30;;;;;;;4.20;3.80;;;;;;;;;;5090818;28;20153;-83
2022/05/02 11:17:02;;;;;;;7.00;4.65;;;;;;;;;;5090493;28;20423;-87
2022/05/02 11:22:33;;;;;;;8.77;4.47;;;;;;;;;;5090154;28;20115;-85
2022/05/02 11:25:21;;;;;;;6.20;4.15;;;;;;;;;;5088131;28;20099;-85
2022/05/02 11:28:08;;;;;;;15.68;9.18;;;;;;;;;;5090181;28;20039;-85
2022/05/02 11:30:55;;;;;;;12.13;7.95;;;;;;;;;;5086569;28;20035;-83
2022/05/02 11:33:39;;;;;;;13.68;9.27;;;;;;;;;;5106801;28;20028;-86
2022/05/02 11:36:10;;;;;;;8.65;7.00;;;;;;;;;;5086639;28;20480;-84
2022/05/02 11:38:49;;;;;;;9.35;8.05;;;;;;;;;;5094804;28;20099;-87
2022/05/02 11:41:19;;;;;;;4.33;3.00;;;;;;;;;;5093268;28;20425;-84
2022/05/02 11:43:46;;;;;;;5.97;3.47;;;;;;;;;;5095076;28;20367;-83
2022/05/02 11:46:24;;;;;;;3.78;3.22;;;;;;;;;;5092432;28;20031;-83
2022/05/02 11:49:13;;;;;;;6.85;4.00;;;;;;;;;;5090681;28;20024;-83
2022/05/02 11:51:51;;;;;;;3.80;3.38;;;;;;;;;;5091557;28;20019;-86
2022/05/02 11:54:37;;;;;;;4.55;3.88;;;;;;;;;;5089807;28;20379;-84
2022/05/02 11:57:22;;;;;;;4.78;3.92;;;;;;;;;;5091388;28;20091;-83
2022/05/02 12:00:06;;;;;;;6.15;3.72;;;;;;;;;;5093537;28;20439;-82
2022/05/02 12:02:38;;;;;;;3.72;3.22;;;;;;;;;;5091027;28;20032;-83
2022/05/02 12:05:37;;;;;;;4.55;3.65;;;;;;;;;;5090867;28;20024;-81
2022/05/02 12:08:06;;;;;;;4.85;3.80;;;;;;;;;;5092202;28;20055;-83
2022/05/02 12:10:47;;;;;;;3.97;3.33;;;;;;;;;;5092887;28;20030;-83
2022/05/02 12:13:16;;;;;;;3.67;3.38;;;;;;;;;;5091626;28;20464;-83
2022/05/02 12:16:00;;;;;;;4.07;3.30;;;;;;;;;;5093553;28;20031;-83
2022/05/02 12:18:48;;;;;;;4.35;3.95;;;;;;;;;;5089078;28;20031;-85
2022/05/02 12:21:34;;;;;;;5.63;4.10;;;;;;;;;;5095307;28;20060;-87
2022/05/02 12:24:00;;;;;;;4.28;3.83;;;;;;;;;;5091908;28;20477;-87
2022/05/02 12:26:27;;;;;;;4.40;3.72;;;;;;;;;;5089092;28;20103;-88
2022/05/02 12:28:56;;;;;;;4.57;3.65;;;;;;;;;;5088229;28;20432;-84
2022/05/02 12:31:32;;;;;;;4.55;4.15;;;;;;;;;;5093558;28;20387;-87
2022/05/02 12:33:58;;;;;;;6.93;4.55;;;;;;;;;;5092313;28;20055;-84
2022/05/02 12:36:28;;;;;;;5.32;3.88;;;;;;;;;;5094959;28;20071;-89
2022/05/02 12:39:04;;;;;;;4.80;3.65;;;;;;;;;;5093462;28;20503;-85
2022/05/02 12:41:38;;;;;;;11.23;7.75;;;;;;;;;;5094185;28;20019;-87
2022/05/02 12:44:08;;;;;;;18.02;14.02;;;;;;;;;;5093956;28;20029;-86
2022/05/02 12:46:39;;;;;;;5.40;3.35;;;;;;;;;;5089921;28;20020;-86
2022/05/02 12:49:10;;;;;;;3.80;3.30;;;;;;;;;;5094830;28;20028;-85
2022/05/02 12:51:37;;;;;;;4.28;3.33;;;;;;;;;;5094098;28;20035;-85
2022/05/02 12:54:23;;;;;;;4.63;4.05;;;;;;;;;;5094542;28;20028;-86
2022/05/02 13:02:58;;;;;;;4.25;3.85;;;;;;;;;;5094189;28;20035;-86
2022/05/02 13:05:28;;;;;;;3.40;3.10;;;;;;;;;;5060282;28;20047;-87
2022/05/02 13:07:55;;;;;;;3.88;3.17;;;;;;;;;;5094545;28;20035;-86
2022/05/02 13:10:28;;;;;;;3.55;3.03;;;;;;;;;;5094695;28;20028;-85
2022/05/02 13:13:00;;;;;;;3.42;3.03;;;;;;;;;;5091867;28;20035;-84
2022/05/02 13:15:27;;;;;;;5.30;3.45;;;;;;;;;;5092639;28;20067;-87
2022/05/02 13:17:58;;;;;;;4.88;3.65;;;;;;;;;;5093103;28;20028;-85
2022/05/02 13:20:28;;;;;;;4.85;3.90;;;;;;;;;;5091404;28;20031;-87
2022/05/02 13:23:16;;;;;;;5.00;4.07;;;;;;;;;;5094616;28;20394;-89
2022/05/02 13:26:19;;;;;;;3.80;3.40;;;;;;;;;;5092742;28;20038;-88
2022/05/02 13:28:54;;;;;;;3.70;2.90;;;;;;;;;;5090894;28;20020;-86
2022/05/02 13:31:44;;;;;;;4.22;3.05;;;;;;;;;;5093506;28;20085;-84
2022/05/02 13:34:19;;;;;;;4.25;3.35;;;;;;;;;;5092358;28;20086;-88
2022/05/02 13:36:48;;;;;;;3.75;3.40;;;;;;;;;;5075333;28;20062;-87
2022/05/02 13:39:29;;;;;;;6.68;3.88;;;;;;;;;;5089293;28;20040;-89
2022/05/02 13:42:09;;;;;;;5.00;3.30;;;;;;;;;;5087612;28;20032;-89
2022/05/02 13:44:47;;;;;;;3.88;3.30;;;;;;;;;;5085391;28;20035;-88
2022/05/02 13:47:14;;;;;;;4.82;3.35;;;;;;;;;;5075286;28;20027;-86
2022/05/02 13:50:12;;;;;;;3.50;3.00;;;;;;;;;;5075351;28;20023;-86
2022/05/02 13:53:18;;;;;;;3.45;3.00;;;;;;;;;;5091019;28;20030;-86
2022/05/02 13:55:52;;;;;;;3.90;2.95;;;;;;;;;;5072154;28;20115;-88
2022/05/02 13:58:45;;;;;;;5.65;3.13;;;;;;;;;;5092077;28;20058;-86
2022/05/02 14:01:32;;;;;;;3.83;3.30;;;;;;;;;;5087087;28;20467;-85
2022/05/02 14:09:44;;;;;;;3.20;2.80;;;;;;;;;;5090082;28;20102;-85
2022/05/02 14:12:22;;;;;;;4.63;3.50;;;;;;;;;;5093161;28;20060;-86
2022/05/02 14:15:10;;;;;;;3.83;3.20;;;;;;;;;;5092662;28;20035;-86
2022/05/02 14:17:45;;;;;;;4.95;2.70;;;;;;;;;;5081855;28;20104;-88
2022/05/02 14:20:23;;;;;;;3.78;3.00;;;;;;;;;;5089909;28;20031;-87
2022/05/02 14:23:01;;;;;;;4.97;3.38;;;;;;;;;;5093298;28;20016;-86
2022/05/02 14:25:28;;;;;;;3.35;2.80;;;;;;;;;;5092280;28;20422;-86
2022/05/02 14:28:00;;;;;;;4.03;2.80;;;;;;;;;;5091578;28;20028;-87
2022/05/02 14:30:26;;;;;;;3.58;2.65;;;;;;;;;;5089156;28;20529;-87
2022/05/02 14:32:54;;;;;;;19.52;14.43;;;;;;;;;;5070313;28;20519;-89
2022/05/02 14:35:21;;;;;;;26.48;17.65;;;;;;;;;;5092564;28;20402;-84
2022/05/02 14:37:48;;;;;;;9.63;5.75;;;;;;;;;;5073923;28;20089;-84
2022/05/02 14:40:15;;;;;;;5.13;2.83;;;;;;;;;;5092565;28;20476;-86
2022/05/02 14:42:42;;;;;;;3.08;2.75;;;;;;;;;;5073749;28;20166;-85
2022/05/02 14:45:10;;;;;;;5.25;2.53;;;;;;;;;;5071707;28;20076;-84
2022/05/02 14:47:37;;;;;;;3.83;2.80;;;;;;;;;;5091225;28;20103;-87
2022/05/02 14:50:03;;;;;;;5.60;2.58;;;;;;;;;;5089727;28;20032;-86
2022/05/02 14:52:35;;;;;;;3.50;2.47;;;;;;;;;;5083368;28;20035;-85
2022/05/02 14:55:03;;;;;;;3.20;2.65;;;;;;;;;;5088886;28;20095;-87
2022/05/02 14:57:30;;;;;;;4.70;2.63;;;;;;;;;;5086812;28;20078;-84
2022/05/02 14:59:58;;;;;;;2.85;2.55;;;;;;;;;;5087519;28;20024;-84
2022/05/02 15:02:26;;;;;;;5.85;2.55;;;;;;;;;;5090507;28;20035;-88
2022/05/02 15:05:01;;;;;;;3.83;2.92;;;;;;;;;;5083876;28;20038;-88
2022/05/02 15:07:36;;;;;;;3.20;2.55;;;;;;;;;;5090119;28;20027;-88
2022/05/02 15:10:28;;;;;;;4.15;2.50;;;;;;;;;;5087392;28;20107;-88
2022/05/02 15:13:11;;;;;;;61.42;41.50;;;;;;;;;;5049313;28;20085;-85
2022/05/02 15:15:53;;;;;;;13.95;10.25;;;;;;;;;;5082047;28;20030;-84
2022/05/02 15:21:39;;;;;;;3.83;2.90;;;;;;;;;;5090117;28;20081;-89
2022/05/02 15:27:24;;;;;;;3.85;2.92;;;;;;;;;;5029012;28;20041;-85
2022/05/02 15:38:59;;;;;;;6.55;3.38;;;;;;;;;;5090075;28;20127;-87
2022/05/02 15:41:39;;;;;;;3.90;2.72;;;;;;;;;;5081469;28;20032;-86
2022/05/02 15:44:28;;;;;;;4.55;3.22;;;;;;;;;;5089763;28;20028;-85
2022/05/02 15:47:20;;;;;;;3.63;2.95;;;;;;;;;;5081157;28;20032;-85
2022/05/02 15:49:57;;;;;;;5.68;3.13;;;;;;;;;;5071254;28;20046;-85
2022/05/02 15:52:26;;;;;;;4.45;3.30;;;;;;;;;;5086016;28;20372;-84
2022/05/02 15:55:04;;;;;;;9.80;3.72;;;;;;;;;;5084750;28;20028;-86
2022/05/02 15:57:36;;;;;;;4.50;3.15;;;;;;;;;;5085606;28;20027;-85
2022/05/02 16:00:18;;;;;;;4.22;2.97;;;;;;;;;;5088742;28;20051;-85
2022/05/02 16:03:03;;;;;;;4.25;3.38;;;;;;;;;;5088219;28;20103;-84
2022/05/02 16:05:30;;;;;;;3.92;3.28;;;;;;;;;;5074394;28;20040;-85
2022/05/02 16:10:44;;;;;;;3.67;3.05;;;;;;;;;;5089392;28;20375;-83
2022/05/02 16:13:19;;;;;;;4.07;3.30;;;;;;;;;;5086784;28;20028;-84
2022/05/02 16:15:47;;;;;;;6.03;3.42;;;;;;;;;;5087314;28;20020;-84
2022/05/02 16:18:14;;;;;;;3.95;3.55;;;;;;;;;;5089601;28;20111;-87
2022/05/02 16:20:42;;;;;;;25.00;17.17;;;;;;;;;;5079939;28;20024;-86